sensor_id;sensor_type;location;lat;lon;timestamp;P1;durP1;ratioP1;P2;durP2;ratioP2
22632;SDS011;11483;55.828;37.488;2023-09-07T00:01:49;1.30;;;0.90;;
22632;SDS011;11483;55.828;37.488;2023-09-07T00:04:18;2.60;;;0.75;;
22632;SDS011;11483;55.828;37.488;2023-09-07T00:06:44;1.50;;;0.90;;
22632;SDS011;11483;55.828;37.488;2023-09-07T00:09:10;1.65;;;0.82;;
22632;SDS011;11483;55.828;37.488;2023-09-07T00:11:37;2.75;;;0.90;;
22632;SDS011;11483;55.828;37.488;2023-09-07T00:14:03;2.00;;;0.73;;
22632;SDS011;11483;55.828;37.488;2023-09-07T00:16:32;2.08;;;0.75;;
22632;SDS011;11483;55.828;37.488;2023-09-07T00:19:03;2.28;;;0.90;;
22632;SDS011;11483;55.828;37.488;2023-09-07T00:21:30;2.45;;;1.30;;
22632;SDS011;11483;55.828;37.488;2023-09-07T00:23:56;3.70;;;1.30;;
22632;SDS011;11483;55.828;37.488;2023-09-07T00:26:21;3.47;;;1.08;;
22632;SDS011;11483;55.828;37.488;2023-09-07T00:28:47;3.00;;;1.00;;
22632;SDS011;11483;55.828;37.488;2023-09-07T00:31:13;1.52;;;1.00;;
22632;SDS011;11483;55.828;37.488;2023-09-07T00:33:39;2.60;;;0.90;;
22632;SDS011;11483;55.828;37.488;2023-09-07T00:36:05;3.37;;;1.13;;
22632;SDS011;11483;55.828;37.488;2023-09-07T00:38:31;2.73;;;1.17;;
22632;SDS011;11483;55.828;37.488;2023-09-07T00:40:57;2.13;;;1.05;;
22632;SDS011;11483;55.828;37.488;2023-09-07T00:43:23;1.93;;;1.13;;
22632;SDS011;11483;55.828;37.488;2023-09-07T00:45:49;2.17;;;1.20;;
22632;SDS011;11483;55.828;37.488;2023-09-07T00:48:15;2.90;;;1.38;;
22632;SDS011;11483;55.828;37.488;2023-09-07T00:50:42;5.20;;;1.40;;
22632;SDS011;11483;55.828;37.488;2023-09-07T00:53:08;5.35;;;1.20;;
22632;SDS011;11483;55.828;37.488;2023-09-07T00:55:35;4.65;;;1.40;;
22632;SDS011;11483;55.828;37.488;2023-09-07T00:58:03;2.65;;;1.10;;
22632;SDS011;11483;55.828;37.488;2023-09-07T01:00:30;1.80;;;1.13;;
22632;SDS011;11483;55.828;37.488;2023-09-07T01:02:56;3.83;;;1.30;;
22632;SDS011;11483;55.828;37.488;2023-09-07T01:05:24;2.80;;;1.20;;
22632;SDS011;11483;55.828;37.488;2023-09-07T01:08:32;3.92;;;1.30;;
22632;SDS011;11483;55.828;37.488;2023-09-07T01:11:16;2.57;;;1.30;;
22632;SDS011;11483;55.828;37.488;2023-09-07T01:13:45;3.08;;;1.45;;
22632;SDS011;11483;55.828;37.488;2023-09-07T01:16:12;3.47;;;1.20;;
22632;SDS011;11483;55.828;37.488;2023-09-07T01:18:38;2.13;;;1.35;;
22632;SDS011;11483;55.828;37.488;2023-09-07T01:21:06;3.83;;;1.10;;
22632;SDS011;11483;55.828;37.488;2023-09-07T01:23:36;3.87;;;1.13;;
22632;SDS011;11483;55.828;37.488;2023-09-07T01:26:08;4.68;;;1.50;;
22632;SDS011;11483;55.828;37.488;2023-09-07T01:28:35;3.20;;;1.48;;
22632;SDS011;11483;55.828;37.488;2023-09-07T01:31:02;5.00;;;1.10;;
22632;SDS011;11483;55.828;37.488;2023-09-07T01:33:28;3.42;;;1.30;;
22632;SDS011;11483;55.828;37.488;2023-09-07T01:35:54;3.78;;;1.33;;
22632;SDS011;11483;55.828;37.488;2023-09-07T01:38:20;3.15;;;1.25;;
22632;SDS011;11483;55.828;37.488;2023-09-07T01:40:46;5.30;;;1.40;;
22632;SDS011;11483;55.828;37.488;2023-09-07T01:43:12;4.25;;;1.15;;
22632;SDS011;11483;55.828;37.488;2023-09-07T01:45:38;2.95;;;1.20;;
22632;SDS011;11483;55.828;37.488;2023-09-07T01:48:07;3.90;;;1.30;;
22632;SDS011;11483;55.828;37.488;2023-09-07T01:50:35;2.70;;;1.40;;
22632;SDS011;11483;55.828;37.488;2023-09-07T01:53:01;3.65;;;1.20;;
22632;SDS011;11483;55.828;37.488;2023-09-07T01:55:29;3.15;;;1.20;;
22632;SDS011;11483;55.828;37.488;2023-09-07T01:57:56;2.63;;;1.20;;
22632;SDS011;11483;55.828;37.488;2023-09-07T02:00:22;2.90;;;1.42;;
22632;SDS011;11483;55.828;37.488;2023-09-07T02:02:48;6.03;;;1.27;;
22632;SDS011;11483;55.828;37.488;2023-09-07T02:05:13;2.35;;;1.20;;
22632;SDS011;11483;55.828;37.488;2023-09-07T02:07:39;3.97;;;1.30;;
22632;SDS011;11483;55.828;37.488;2023-09-07T02:10:05;3.77;;;1.67;;
22632;SDS011;11483;55.828;37.488;2023-09-07T02:12:33;2.40;;;1.30;;
22632;SDS011;11483;55.828;37.488;2023-09-07T02:15:00;6.28;;;1.27;;
22632;SDS011;11483;55.828;37.488;2023-09-07T02:17:29;3.05;;;1.33;;
22632;SDS011;11483;55.828;37.488;2023-09-07T02:19:55;3.15;;;1.45;;
22632;SDS011;11483;55.828;37.488;2023-09-07T02:22:21;3.65;;;1.30;;
22632;SDS011;11483;55.828;37.488;2023-09-07T02:24:47;2.08;;;1.08;;
22632;SDS011;11483;55.828;37.488;2023-09-07T02:27:13;4.90;;;1.67;;
22632;SDS011;11483;55.828;37.488;2023-09-07T02:29:39;3.35;;;1.08;;
22632;SDS011;11483;55.828;37.488;2023-09-07T02:32:05;3.22;;;1.27;;
22632;SDS011;11483;55.828;37.488;2023-09-07T02:34:32;4.23;;;1.20;;
22632;SDS011;11483;55.828;37.488;2023-09-07T02:37:01;3.63;;;1.27;;
22632;SDS011;11483;55.828;37.488;2023-09-07T02:39:28;2.33;;;1.50;;
22632;SDS011;11483;55.828;37.488;2023-09-07T02:41:54;4.63;;;1.20;;
22632;SDS011;11483;55.828;37.488;2023-09-07T02:44:20;5.05;;;1.38;;
22632;SDS011;11483;55.828;37.488;2023-09-07T02:46:46;1.80;;;1.27;;
22632;SDS011;11483;55.828;37.488;2023-09-07T02:49:12;6.38;;;1.40;;
22632;SDS011;11483;55.828;37.488;2023-09-07T02:51:38;1.73;;;0.98;;
22632;SDS011;11483;55.828;37.488;2023-09-07T02:54:04;5.10;;;2.00;;
22632;SDS011;11483;55.828;37.488;2023-09-07T02:56:30;4.22;;;1.40;;
22632;SDS011;11483;55.828;37.488;2023-09-07T02:58:56;3.22;;;1.02;;
22632;SDS011;11483;55.828;37.488;2023-09-07T03:01:22;5.05;;;1.60;;
22632;SDS011;11483;55.828;37.488;2023-09-07T03:03:48;2.25;;;1.00;;
22632;SDS011;11483;55.828;37.488;2023-09-07T03:06:14;1.50;;;1.10;;
22632;SDS011;11483;55.828;37.488;2023-09-07T03:08:42;4.60;;;1.17;;
22632;SDS011;11483;55.828;37.488;2023-09-07T03:11:09;3.23;;;1.10;;
22632;SDS011;11483;55.828;37.488;2023-09-07T03:13:35;4.25;;;1.13;;
22632;SDS011;11483;55.828;37.488;2023-09-07T03:16:02;5.70;;;1.13;;
22632;SDS011;11483;55.828;37.488;2023-09-07T03:18:29;4.03;;;1.10;;
22632;SDS011;11483;55.828;37.488;2023-09-07T03:20:55;4.18;;;1.23;;
22632;SDS011;11483;55.828;37.488;2023-09-07T03:23:23;2.65;;;1.30;;
22632;SDS011;11483;55.828;37.488;2023-09-07T03:25:49;1.75;;;1.10;;
22632;SDS011;11483;55.828;37.488;2023-09-07T03:28:15;2.23;;;1.00;;
22632;SDS011;11483;55.828;37.488;2023-09-07T03:30:41;11.15;;;2.50;;
22632;SDS011;11483;55.828;37.488;2023-09-07T03:33:07;2.70;;;1.10;;
22632;SDS011;11483;55.828;37.488;2023-09-07T03:35:33;3.15;;;1.05;;
22632;SDS011;11483;55.828;37.488;2023-09-07T03:37:58;6.20;;;1.10;;
22632;SDS011;11483;55.828;37.488;2023-09-07T03:40:24;6.97;;;1.00;;
22632;SDS011;11483;55.828;37.488;2023-09-07T03:42:50;1.30;;;1.00;;
22632;SDS011;11483;55.828;37.488;2023-09-07T03:45:16;2.35;;;1.10;;
22632;SDS011;11483;55.828;37.488;2023-09-07T03:47:42;3.63;;;1.13;;
22632;SDS011;11483;55.828;37.488;2023-09-07T03:50:09;2.38;;;0.95;;
22632;SDS011;11483;55.828;37.488;2023-09-07T03:52:36;3.97;;;1.20;;
22632;SDS011;11483;55.828;37.488;2023-09-07T03:55:02;2.97;;;1.10;;
22632;SDS011;11483;55.828;37.488;2023-09-07T03:57:28;2.10;;;1.00;;
22632;SDS011;11483;55.828;37.488;2023-09-07T03:59:54;2.58;;;0.85;;
22632;SDS011;11483;55.828;37.488;2023-09-07T04:02:22;2.85;;;0.88;;
22632;SDS011;11483;55.828;37.488;2023-09-07T04:04:54;3.45;;;0.82;;
22632;SDS011;11483;55.828;37.488;2023-09-07T04:07:20;2.25;;;1.13;;
22632;SDS011;11483;55.828;37.488;2023-09-07T04:09:46;3.08;;;0.90;;
22632;SDS011;11483;55.828;37.488;2023-09-07T04:12:12;5.22;;;1.00;;
22632;SDS011;11483;55.828;37.488;2023-09-07T04:14:38;2.50;;;0.90;;
22632;SDS011;11483;55.828;37.488;2023-09-07T04:17:05;2.65;;;0.98;;
22632;SDS011;11483;55.828;37.488;2023-09-07T04:19:31;2.40;;;0.90;;
22632;SDS011;11483;55.828;37.488;2023-09-07T04:21:57;3.17;;;0.90;;
22632;SDS011;11483;55.828;37.488;2023-09-07T04:24:23;1.90;;;1.00;;
22632;SDS011;11483;55.828;37.488;2023-09-07T04:26:49;2.42;;;0.85;;
22632;SDS011;11483;55.828;37.488;2023-09-07T04:29:15;2.50;;;0.82;;
22632;SDS011;11483;55.828;37.488;2023-09-07T04:31:41;5.85;;;0.85;;
22632;SDS011;11483;55.828;37.488;2023-09-07T04:34:07;1.80;;;0.90;;
22632;SDS011;11483;55.828;37.488;2023-09-07T04:36:33;4.53;;;0.98;;
22632;SDS011;11483;55.828;37.488;2023-09-07T04:38:59;2.88;;;0.80;;
22632;SDS011;11483;55.828;37.488;2023-09-07T04:41:25;3.77;;;1.10;;
22632;SDS011;11483;55.828;37.488;2023-09-07T04:43:50;2.03;;;0.98;;
22632;SDS011;11483;55.828;37.488;2023-09-07T04:46:16;4.70;;;0.90;;
22632;SDS011;11483;55.828;37.488;2023-09-07T04:48:42;2.05;;;0.80;;
22632;SDS011;11483;55.828;37.488;2023-09-07T04:51:09;3.50;;;0.97;;
22632;SDS011;11483;55.828;37.488;2023-09-07T04:53:37;3.37;;;0.90;;
22632;SDS011;11483;55.828;37.488;2023-09-07T04:56:04;2.92;;;0.90;;
22632;SDS011;11483;55.828;37.488;2023-09-07T04:58:31;2.85;;;0.70;;
22632;SDS011;11483;55.828;37.488;2023-09-07T05:01:07;5.07;;;0.90;;
22632;SDS011;11483;55.828;37.488;2023-09-07T05:03:33;2.75;;;0.80;;
22632;SDS011;11483;55.828;37.488;2023-09-07T05:06:00;4.45;;;1.05;;
22632;SDS011;11483;55.828;37.488;2023-09-07T05:08:28;1.15;;;0.80;;
22632;SDS011;11483;55.828;37.488;2023-09-07T05:10:58;5.00;;;0.93;;
22632;SDS011;11483;55.828;37.488;2023-09-07T05:13:25;1.75;;;0.82;;
22632;SDS011;11483;55.828;37.488;2023-09-07T05:15:52;3.07;;;1.07;;
22632;SDS011;11483;55.828;37.488;2023-09-07T05:18:19;5.05;;;1.00;;
22632;SDS011;11483;55.828;37.488;2023-09-07T05:20:45;1.55;;;0.70;;
22632;SDS011;11483;55.828;37.488;2023-09-07T05:23:12;3.60;;;1.00;;
22632;SDS011;11483;55.828;37.488;2023-09-07T05:25:48;7.50;;;1.20;;
22632;SDS011;11483;55.828;37.488;2023-09-07T05:28:15;2.70;;;1.20;;
22632;SDS011;11483;55.828;37.488;2023-09-07T05:30:42;3.35;;;0.90;;
22632;SDS011;11483;55.828;37.488;2023-09-07T05:33:11;7.20;;;0.90;;
22632;SDS011;11483;55.828;37.488;2023-09-07T05:35:39;1.80;;;0.83;;
22632;SDS011;11483;55.828;37.488;2023-09-07T05:38:06;2.97;;;1.27;;
22632;SDS011;11483;55.828;37.488;2023-09-07T05:40:33;2.40;;;1.05;;
22632;SDS011;11483;55.828;37.488;2023-09-07T05:43:01;5.63;;;1.20;;
22632;SDS011;11483;55.828;37.488;2023-09-07T05:45:29;4.88;;;1.10;;
22632;SDS011;11483;55.828;37.488;2023-09-07T05:47:56;1.75;;;0.90;;
22632;SDS011;11483;55.828;37.488;2023-09-07T05:50:22;6.07;;;1.00;;
22632;SDS011;11483;55.828;37.488;2023-09-07T05:52:48;1.98;;;0.90;;
22632;SDS011;11483;55.828;37.488;2023-09-07T05:55:14;3.15;;;1.00;;
22632;SDS011;11483;55.828;37.488;2023-09-07T05:57:40;2.72;;;0.93;;
22632;SDS011;11483;55.828;37.488;2023-09-07T06:00:06;2.40;;;1.10;;
22632;SDS011;11483;55.828;37.488;2023-09-07T06:02:33;1.83;;;1.00;;
22632;SDS011;11483;55.828;37.488;2023-09-07T06:04:59;2.88;;;1.00;;
22632;SDS011;11483;55.828;37.488;2023-09-07T06:07:25;2.50;;;0.80;;
22632;SDS011;11483;55.828;37.488;2023-09-07T06:09:51;3.50;;;1.20;;
22632;SDS011;11483;55.828;37.488;2023-09-07T06:12:17;1.70;;;1.00;;
22632;SDS011;11483;55.828;37.488;2023-09-07T06:14:44;5.50;;;0.90;;
22632;SDS011;11483;55.828;37.488;2023-09-07T06:17:11;2.40;;;1.20;;
22632;SDS011;11483;55.828;37.488;2023-09-07T06:19:37;1.10;;;0.77;;
22632;SDS011;11483;55.828;37.488;2023-09-07T06:22:03;2.30;;;1.00;;
22632;SDS011;11483;55.828;37.488;2023-09-07T06:24:29;2.50;;;1.00;;
22632;SDS011;11483;55.828;37.488;2023-09-07T06:26:55;2.93;;;1.00;;
22632;SDS011;11483;55.828;37.488;2023-09-07T06:29:21;4.32;;;0.93;;
22632;SDS011;11483;55.828;37.488;2023-09-07T06:31:46;2.77;;;0.80;;
22632;SDS011;11483;55.828;37.488;2023-09-07T06:34:15;4.35;;;1.02;;
22632;SDS011;11483;55.828;37.488;2023-09-07T06:36:41;1.38;;;0.93;;
22632;SDS011;11483;55.828;37.488;2023-09-07T06:39:07;2.33;;;0.90;;
22632;SDS011;11483;55.828;37.488;2023-09-07T06:41:33;2.72;;;1.00;;
22632;SDS011;11483;55.828;37.488;2023-09-07T06:43:58;2.22;;;0.93;;
22632;SDS011;11483;55.828;37.488;2023-09-07T06:46:24;2.92;;;1.17;;
22632;SDS011;11483;55.828;37.488;2023-09-07T06:48:50;1.50;;;0.90;;
22632;SDS011;11483;55.828;37.488;2023-09-07T06:51:16;1.75;;;0.80;;
22632;SDS011;11483;55.828;37.488;2023-09-07T06:53:42;1.60;;;1.10;;
22632;SDS011;11483;55.828;37.488;2023-09-07T06:56:07;1.52;;;0.85;;
22632;SDS011;11483;55.828;37.488;2023-09-07T06:58:33;5.60;;;0.98;;
22632;SDS011;11483;55.828;37.488;2023-09-07T07:00:59;7.87;;;1.10;;
22632;SDS011;11483;55.828;37.488;2023-09-07T07:03:27;1.13;;;1.00;;
22632;SDS011;11483;55.828;37.488;2023-09-07T07:05:54;4.93;;;1.30;;
22632;SDS011;11483;55.828;37.488;2023-09-07T07:08:21;3.80;;;1.20;;
22632;SDS011;11483;55.828;37.488;2023-09-07T07:10:47;1.70;;;1.10;;
22632;SDS011;11483;55.828;37.488;2023-09-07T07:13:13;3.92;;;1.20;;
22632;SDS011;11483;55.828;37.488;2023-09-07T07:15:39;6.88;;;1.10;;
22632;SDS011;11483;55.828;37.488;2023-09-07T07:18:05;1.30;;;1.10;;
22632;SDS011;11483;55.828;37.488;2023-09-07T07:20:34;2.50;;;0.95;;
22632;SDS011;11483;55.828;37.488;2023-09-07T07:23:01;2.90;;;1.13;;
22632;SDS011;11483;55.828;37.488;2023-09-07T07:25:26;3.85;;;1.00;;
22632;SDS011;11483;55.828;37.488;2023-09-07T07:27:52;3.03;;;0.95;;
22632;SDS011;11483;55.828;37.488;2023-09-07T07:30:18;5.53;;;1.57;;
22632;SDS011;11483;55.828;37.488;2023-09-07T07:32:44;3.28;;;0.98;;
22632;SDS011;11483;55.828;37.488;2023-09-07T07:35:10;2.80;;;1.17;;
22632;SDS011;11483;55.828;37.488;2023-09-07T07:37:36;1.27;;;0.82;;
22632;SDS011;11483;55.828;37.488;2023-09-07T07:40:02;2.67;;;0.90;;
22632;SDS011;11483;55.828;37.488;2023-09-07T07:42:28;1.95;;;1.00;;
22632;SDS011;11483;55.828;37.488;2023-09-07T07:44:54;4.93;;;1.20;;
22632;SDS011;11483;55.828;37.488;2023-09-07T07:47:19;2.38;;;0.90;;
22632;SDS011;11483;55.828;37.488;2023-09-07T07:49:45;9.27;;;1.30;;
22632;SDS011;11483;55.828;37.488;2023-09-07T07:52:11;3.35;;;1.00;;
22632;SDS011;11483;55.828;37.488;2023-09-07T07:54:37;2.17;;;0.90;;
22632;SDS011;11483;55.828;37.488;2023-09-07T07:57:03;4.78;;;0.90;;
22632;SDS011;11483;55.828;37.488;2023-09-07T07:59:29;2.90;;;1.00;;
22632;SDS011;11483;55.828;37.488;2023-09-07T08:01:55;3.17;;;0.80;;
22632;SDS011;11483;55.828;37.488;2023-09-07T08:04:21;1.17;;;0.80;;
22632;SDS011;11483;55.828;37.488;2023-09-07T08:09:12;2.05;;;0.77;;
22632;SDS011;11483;55.828;37.488;2023-09-07T08:11:39;6.47;;;1.00;;
22632;SDS011;11483;55.828;37.488;2023-09-07T08:14:04;2.67;;;0.88;;
22632;SDS011;11483;55.828;37.488;2023-09-07T08:16:30;1.50;;;0.88;;
22632;SDS011;11483;55.828;37.488;2023-09-07T08:18:56;3.65;;;0.70;;
22632;SDS011;11483;55.828;37.488;2023-09-07T08:21:22;2.33;;;0.80;;
22632;SDS011;11483;55.828;37.488;2023-09-07T08:23:48;0.60;;;0.60;;
22632;SDS011;11483;55.828;37.488;2023-09-07T08:26:14;8.00;;;0.77;;
22632;SDS011;11483;55.828;37.488;2023-09-07T08:28:40;7.15;;;0.95;;
22632;SDS011;11483;55.828;37.488;2023-09-07T08:31:05;1.02;;;0.50;;
22632;SDS011;11483;55.828;37.488;2023-09-07T08:33:32;0.85;;;0.60;;
22632;SDS011;11483;55.828;37.488;2023-09-07T08:36:05;1.15;;;0.60;;
22632;SDS011;11483;55.828;37.488;2023-09-07T08:38:31;0.98;;;0.50;;
22632;SDS011;11483;55.828;37.488;2023-09-07T08:41:00;1.48;;;0.43;;
22632;SDS011;11483;55.828;37.488;2023-09-07T08:43:28;3.50;;;0.50;;
22632;SDS011;11483;55.828;37.488;2023-09-07T08:48:52;2.83;;;0.85;;
22632;SDS011;11483;55.828;37.488;2023-09-07T08:51:20;0.95;;;0.60;;
22632;SDS011;11483;55.828;37.488;2023-09-07T08:53:48;2.58;;;0.60;;
22632;SDS011;11483;55.828;37.488;2023-09-07T08:56:14;0.70;;;0.57;;
22632;SDS011;11483;55.828;37.488;2023-09-07T08:58:42;1.17;;;0.40;;
22632;SDS011;11483;55.828;37.488;2023-09-07T09:01:09;2.95;;;0.80;;
22632;SDS011;11483;55.828;37.488;2023-09-07T09:03:36;0.73;;;0.47;;
22632;SDS011;11483;55.828;37.488;2023-09-07T09:06:03;0.40;;;0.40;;
22632;SDS011;11483;55.828;37.488;2023-09-07T09:08:41;2.50;;;0.52;;
22632;SDS011;11483;55.828;37.488;2023-09-07T09:11:11;0.95;;;0.50;;
22632;SDS011;11483;55.828;37.488;2023-09-07T09:13:37;1.30;;;0.70;;
22632;SDS011;11483;55.828;37.488;2023-09-07T09:16:06;0.40;;;0.40;;
22632;SDS011;11483;55.828;37.488;2023-09-07T09:18:32;0.50;;;0.50;;
22632;SDS011;11483;55.828;37.488;2023-09-07T09:20:57;2.83;;;0.60;;
22632;SDS011;11483;55.828;37.488;2023-09-07T09:23:35;0.85;;;0.50;;
22632;SDS011;11483;55.828;37.488;2023-09-07T09:26:02;1.98;;;0.50;;
22632;SDS011;11483;55.828;37.488;2023-09-07T09:28:33;0.40;;;0.40;;
22632;SDS011;11483;55.828;37.488;2023-09-07T09:31:00;1.45;;;0.50;;
22632;SDS011;11483;55.828;37.488;2023-09-07T09:33:27;0.95;;;0.77;;
22632;SDS011;11483;55.828;37.488;2023-09-07T09:35:56;1.77;;;0.60;;
22632;SDS011;11483;55.828;37.488;2023-09-07T09:38:27;0.85;;;0.50;;
22632;SDS011;11483;55.828;37.488;2023-09-07T09:40:57;1.25;;;0.70;;
22632;SDS011;11483;55.828;37.488;2023-09-07T09:43:26;0.55;;;0.40;;
22632;SDS011;11483;55.828;37.488;2023-09-07T09:45:53;1.15;;;0.75;;
22632;SDS011;11483;55.828;37.488;2023-09-07T09:48:19;3.08;;;0.52;;
22632;SDS011;11483;55.828;37.488;2023-09-07T09:50:46;1.95;;;0.70;;
22632;SDS011;11483;55.828;37.488;2023-09-07T09:53:14;0.98;;;0.70;;
22632;SDS011;11483;55.828;37.488;2023-09-07T09:55:49;0.93;;;0.50;;
22632;SDS011;11483;55.828;37.488;2023-09-07T09:58:17;4.90;;;0.52;;
22632;SDS011;11483;55.828;37.488;2023-09-07T10:00:44;3.78;;;0.65;;
22632;SDS011;11483;55.828;37.488;2023-09-07T10:03:18;1.23;;;0.60;;
22632;SDS011;11483;55.828;37.488;2023-09-07T10:05:49;4.60;;;0.60;;
22632;SDS011;11483;55.828;37.488;2023-09-07T10:08:16;1.20;;;0.60;;
22632;SDS011;11483;55.828;37.488;2023-09-07T10:10:46;1.08;;;0.77;;
22632;SDS011;11483;55.828;37.488;2023-09-07T10:13:16;3.08;;;0.80;;
22632;SDS011;11483;55.828;37.488;2023-09-07T10:16:04;0.90;;;0.70;;
22632;SDS011;11483;55.828;37.488;2023-09-07T10:18:37;1.38;;;0.77;;
22632;SDS011;11483;55.828;37.488;2023-09-07T10:21:04;3.97;;;0.60;;
22632;SDS011;11483;55.828;37.488;2023-09-07T10:31:17;2.53;;;0.60;;
22632;SDS011;11483;55.828;37.488;2023-09-07T10:33:44;1.00;;;0.50;;
22632;SDS011;11483;55.828;37.488;2023-09-07T10:36:24;2.38;;;0.68;;
22632;SDS011;11483;55.828;37.488;2023-09-07T10:38:51;2.17;;;0.60;;
22632;SDS011;11483;55.828;37.488;2023-09-07T10:41:20;0.82;;;0.68;;
22632;SDS011;11483;55.828;37.488;2023-09-07T10:43:47;0.50;;;0.50;;
22632;SDS011;11483;55.828;37.488;2023-09-07T10:46:21;3.20;;;0.45;;
22632;SDS011;11483;55.828;37.488;2023-09-07T10:48:51;1.83;;;0.60;;
22632;SDS011;11483;55.828;37.488;2023-09-07T10:51:18;0.80;;;0.80;;
22632;SDS011;11483;55.828;37.488;2023-09-07T10:53:45;3.35;;;0.70;;
22632;SDS011;11483;55.828;37.488;2023-09-07T10:56:11;7.47;;;0.70;;
22632;SDS011;11483;55.828;37.488;2023-09-07T10:58:37;0.50;;;0.50;;
22632;SDS011;11483;55.828;37.488;2023-09-07T11:01:09;1.27;;;0.70;;
22632;SDS011;11483;55.828;37.488;2023-09-07T11:03:36;1.00;;;0.70;;
22632;SDS011;11483;55.828;37.488;2023-09-07T11:08:34;3.40;;;0.80;;
22632;SDS011;11483;55.828;37.488;2023-09-07T11:11:03;2.72;;;0.70;;
22632;SDS011;11483;55.828;37.488;2023-09-07T11:13:30;5.90;;;1.10;;
22632;SDS011;11483;55.828;37.488;2023-09-07T11:15:57;3.38;;;0.70;;
22632;SDS011;11483;55.828;37.488;2023-09-07T11:18:24;1.48;;;0.77;;
22632;SDS011;11483;55.828;37.488;2023-09-07T11:20:51;3.65;;;1.02;;
22632;SDS011;11483;55.828;37.488;2023-09-07T11:23:18;1.42;;;0.68;;
22632;SDS011;11483;55.828;37.488;2023-09-07T11:25:49;0.82;;;0.70;;
22632;SDS011;11483;55.828;37.488;2023-09-07T11:28:17;0.80;;;0.65;;
22632;SDS011;11483;55.828;37.488;2023-09-07T11:33:17;1.17;;;0.65;;
22632;SDS011;11483;55.828;37.488;2023-09-07T11:35:43;1.85;;;0.75;;
22632;SDS011;11483;55.828;37.488;2023-09-07T11:38:12;1.67;;;0.75;;
22632;SDS011;11483;55.828;37.488;2023-09-07T11:40:39;4.32;;;0.70;;
22632;SDS011;11483;55.828;37.488;2023-09-07T11:43:08;1.75;;;0.55;;
22632;SDS011;11483;55.828;37.488;2023-09-07T11:45:34;1.13;;;0.50;;
22632;SDS011;11483;55.828;37.488;2023-09-07T11:47:59;1.30;;;0.60;;
22632;SDS011;11483;55.828;37.488;2023-09-07T11:50:25;0.88;;;0.60;;
22632;SDS011;11483;55.828;37.488;2023-09-07T11:52:55;0.52;;;0.52;;
22632;SDS011;11483;55.828;37.488;2023-09-07T11:55:21;0.57;;;0.55;;
22632;SDS011;11483;55.828;37.488;2023-09-07T11:57:47;1.92;;;0.80;;
22632;SDS011;11483;55.828;37.488;2023-09-07T12:00:13;1.08;;;0.50;;
22632;SDS011;11483;55.828;37.488;2023-09-07T12:02:40;7.72;;;1.00;;
22632;SDS011;11483;55.828;37.488;2023-09-07T12:05:06;0.65;;;0.65;;
22632;SDS011;11483;55.828;37.488;2023-09-07T12:07:34;2.45;;;0.73;;
22632;SDS011;11483;55.828;37.488;2023-09-07T12:10:03;2.22;;;0.63;;
22632;SDS011;11483;55.828;37.488;2023-09-07T12:12:29;0.75;;;0.60;;
22632;SDS011;11483;55.828;37.488;2023-09-07T12:14:55;1.08;;;0.60;;
22632;SDS011;11483;55.828;37.488;2023-09-07T12:17:21;1.88;;;0.63;;
22632;SDS011;11483;55.828;37.488;2023-09-07T12:19:50;3.20;;;0.70;;
22632;SDS011;11483;55.828;37.488;2023-09-07T12:22:15;1.60;;;0.60;;
22632;SDS011;11483;55.828;37.488;2023-09-07T12:24:41;2.15;;;0.60;;
22632;SDS011;11483;55.828;37.488;2023-09-07T12:27:07;1.60;;;1.13;;
22632;SDS011;11483;55.828;37.488;2023-09-07T12:29:33;1.38;;;0.70;;
22632;SDS011;11483;55.828;37.488;2023-09-07T12:31:59;1.00;;;0.60;;
22632;SDS011;11483;55.828;37.488;2023-09-07T12:34:24;4.47;;;0.60;;
22632;SDS011;11483;55.828;37.488;2023-09-07T12:36:50;0.85;;;0.65;;
22632;SDS011;11483;55.828;37.488;2023-09-07T12:39:16;3.22;;;0.60;;
22632;SDS011;11483;55.828;37.488;2023-09-07T12:41:42;1.00;;;0.63;;
22632;SDS011;11483;55.828;37.488;2023-09-07T12:44:08;2.42;;;0.47;;
22632;SDS011;11483;55.828;37.488;2023-09-07T12:46:34;0.95;;;0.70;;
22632;SDS011;11483;55.828;37.488;2023-09-07T12:49:02;2.33;;;0.70;;
22632;SDS011;11483;55.828;37.488;2023-09-07T12:51:28;1.65;;;0.82;;
22632;SDS011;11483;55.828;37.488;2023-09-07T12:53:54;3.20;;;0.70;;
22632;SDS011;11483;55.828;37.488;2023-09-07T12:56:19;1.30;;;0.60;;
22632;SDS011;11483;55.828;37.488;2023-09-07T12:58:45;4.90;;;0.65;;
22632;SDS011;11483;55.828;37.488;2023-09-07T13:01:11;1.00;;;0.80;;
22632;SDS011;11483;55.828;37.488;2023-09-07T13:03:40;0.88;;;0.60;;
22632;SDS011;11483;55.828;37.488;2023-09-07T13:06:06;1.33;;;0.73;;
22632;SDS011;11483;55.828;37.488;2023-09-07T13:08:32;1.85;;;0.70;;
22632;SDS011;11483;55.828;37.488;2023-09-07T13:10:58;1.42;;;0.63;;
22632;SDS011;11483;55.828;37.488;2023-09-07T13:13:24;0.93;;;0.60;;
22632;SDS011;11483;55.828;37.488;2023-09-07T13:15:56;1.23;;;0.80;;
22632;SDS011;11483;55.828;37.488;2023-09-07T13:18:22;3.78;;;0.68;;
22632;SDS011;11483;55.828;37.488;2023-09-07T13:20:48;7.60;;;0.60;;
22632;SDS011;11483;55.828;37.488;2023-09-07T13:23:30;1.75;;;0.70;;
22632;SDS011;11483;55.828;37.488;2023-09-07T13:25:56;1.42;;;0.60;;
22632;SDS011;11483;55.828;37.488;2023-09-07T13:28:22;16.23;;;1.02;;
22632;SDS011;11483;55.828;37.488;2023-09-07T13:30:52;3.60;;;1.08;;
22632;SDS011;11483;55.828;37.488;2023-09-07T13:33:17;1.13;;;0.65;;
22632;SDS011;11483;55.828;37.488;2023-09-07T13:35:43;3.97;;;0.90;;
22632;SDS011;11483;55.828;37.488;2023-09-07T13:38:10;3.30;;;0.70;;
22632;SDS011;11483;55.828;37.488;2023-09-07T13:40:36;0.60;;;0.60;;
22632;SDS011;11483;55.828;37.488;2023-09-07T13:43:02;1.35;;;0.75;;
22632;SDS011;11483;55.828;37.488;2023-09-07T13:45:28;0.80;;;0.60;;
22632;SDS011;11483;55.828;37.488;2023-09-07T13:47:54;0.93;;;0.77;;
22632;SDS011;11483;55.828;37.488;2023-09-07T13:50:21;5.68;;;1.02;;
22632;SDS011;11483;55.828;37.488;2023-09-07T13:52:47;1.48;;;0.70;;
22632;SDS011;11483;55.828;37.488;2023-09-07T13:55:13;0.57;;;0.57;;
22632;SDS011;11483;55.828;37.488;2023-09-07T13:57:39;2.50;;;0.82;;
22632;SDS011;11483;55.828;37.488;2023-09-07T14:00:05;3.15;;;1.08;;
22632;SDS011;11483;55.828;37.488;2023-09-07T14:02:34;1.98;;;0.77;;
22632;SDS011;11483;55.828;37.488;2023-09-07T14:05:00;1.73;;;0.80;;
22632;SDS011;11483;55.828;37.488;2023-09-07T14:07:26;3.65;;;1.00;;
22632;SDS011;11483;55.828;37.488;2023-09-07T14:09:53;1.90;;;0.98;;
22632;SDS011;11483;55.828;37.488;2023-09-07T14:12:20;1.15;;;0.95;;
22632;SDS011;11483;55.828;37.488;2023-09-07T14:14:47;6.97;;;1.00;;
22632;SDS011;11483;55.828;37.488;2023-09-07T14:17:14;1.30;;;0.77;;
22632;SDS011;11483;55.828;37.488;2023-09-07T14:19:40;3.80;;;0.95;;
22632;SDS011;11483;55.828;37.488;2023-09-07T14:22:06;2.00;;;0.88;;
22632;SDS011;11483;55.828;37.488;2023-09-07T14:24:31;0.70;;;0.70;;
22632;SDS011;11483;55.828;37.488;2023-09-07T14:26:57;2.45;;;0.85;;
22632;SDS011;11483;55.828;37.488;2023-09-07T14:29:23;4.63;;;0.80;;
22632;SDS011;11483;55.828;37.488;2023-09-07T14:31:49;2.60;;;1.00;;
22632;SDS011;11483;55.828;37.488;2023-09-07T14:36:40;1.23;;;0.80;;
22632;SDS011;11483;55.828;37.488;2023-09-07T14:39:07;1.58;;;0.80;;
22632;SDS011;11483;55.828;37.488;2023-09-07T14:41:37;1.00;;;0.90;;
22632;SDS011;11483;55.828;37.488;2023-09-07T14:44:03;3.25;;;0.80;;
22632;SDS011;11483;55.828;37.488;2023-09-07T14:46:29;4.32;;;1.40;;
22632;SDS011;11483;55.828;37.488;2023-09-07T14:48:55;6.32;;;1.10;;
22632;SDS011;11483;55.828;37.488;2023-09-07T14:51:26;1.40;;;0.70;;
22632;SDS011;11483;55.828;37.488;2023-09-07T14:53:52;2.40;;;1.10;;